createdAt,value
2023-05-21T00:00:15.486Z,23.80
2023-05-21T00:01:15.501Z,22.90
2023-05-21T00:02:15.462Z,22.40
2023-05-21T00:03:15.575Z,23.00
2023-05-21T00:04:15.523Z,23.40
2023-05-21T00:05:15.527Z,22.40
2023-05-21T00:06:15.598Z,25.60
2023-05-21T00:07:15.441Z,23.50
2023-05-21T00:08:15.445Z,23.70
2023-05-21T00:09:15.434Z,21.20
2023-05-21T00:10:15.417Z,24.80
2023-05-21T00:11:15.411Z,25.10
2023-05-21T00:12:15.453Z,23.20
2023-05-21T00:13:15.457Z,23.10
2023-05-21T00:14:15.295Z,25.60
2023-05-21T00:15:15.432Z,23.20
2023-05-21T00:16:15.313Z,22.60
2023-05-21T00:17:15.299Z,22.90
2023-05-21T00:18:15.268Z,23.70
2023-05-21T00:19:15.321Z,23.80
2023-05-21T00:20:15.273Z,23.90
2023-05-21T00:21:15.243Z,22.40
2023-05-21T00:22:15.218Z,23.90
2023-05-21T00:23:15.210Z,23.30
2023-05-21T00:24:15.240Z,23.70
2023-05-21T00:25:15.192Z,24.80
2023-05-21T00:26:15.191Z,23.30
2023-05-21T00:27:15.176Z,24.50
2023-05-21T00:28:15.120Z,22.30
2023-05-21T00:29:15.143Z,22.80
2023-05-21T00:30:15.111Z,21.50
2023-05-21T00:31:15.184Z,22.70
2023-05-21T00:32:15.086Z,24.40
2023-05-21T00:33:15.077Z,23.70
2023-05-21T00:34:15.056Z,24.80
2023-05-21T00:35:15.052Z,23.40
2023-05-21T00:36:15.022Z,23.80
2023-05-21T00:37:15.040Z,24.40
2023-05-21T00:38:14.998Z,24.90
2023-05-21T00:39:15.007Z,23.20
2023-05-21T00:40:14.963Z,24.10
2023-05-21T00:41:15.037Z,24.40
2023-05-21T00:42:14.934Z,23.70
2023-05-21T00:43:14.952Z,23.70
2023-05-21T00:44:14.920Z,22.50
2023-05-21T00:45:14.930Z,23.70
2023-05-21T00:46:14.888Z,25.60
2023-05-21T00:47:14.918Z,25.00
2023-05-21T00:48:14.904Z,22.60
2023-05-21T00:49:14.865Z,24.60
2023-05-21T00:50:14.858Z,25.40
2023-05-21T00:51:14.836Z,23.60
2023-05-21T00:52:14.815Z,24.10
2023-05-21T00:53:14.830Z,25.10
2023-05-21T00:54:14.822Z,24.90
2023-05-21T00:55:14.790Z,25.40
2023-05-21T00:56:14.753Z,24.50
2023-05-21T00:57:14.783Z,24.80
2023-05-21T00:58:14.742Z,26.40
2023-05-21T00:59:14.746Z,22.30
2023-05-21T01:00:14.748Z,24.60
2023-05-21T01:01:14.736Z,22.60
2023-05-21T01:02:14.687Z,24.10
2023-05-21T01:03:14.845Z,24.50
2023-05-21T01:04:14.650Z,26.00
2023-05-21T01:05:14.696Z,22.50
2023-05-21T01:06:14.614Z,24.30
2023-05-21T01:07:14.693Z,25.90
2023-05-21T01:08:14.587Z,27.70
2023-05-21T01:09:14.612Z,25.40
2023-05-21T01:10:14.579Z,23.30
2023-05-21T01:11:14.578Z,22.40
2023-05-21T01:12:14.556Z,24.60
2023-05-21T01:13:14.555Z,27.60
2023-05-21T01:14:14.510Z,24.60
2023-05-21T01:15:14.551Z,23.20
2023-05-21T01:16:14.492Z,24.10
2023-05-21T01:17:14.508Z,24.20
2023-05-21T01:18:14.485Z,26.40
2023-05-21T01:19:14.544Z,23.00
2023-05-21T01:20:14.450Z,24.60
2023-05-21T01:21:14.442Z,29.70
2023-05-21T01:22:14.404Z,24.50
2023-05-21T01:23:14.432Z,23.40
2023-05-21T01:24:14.386Z,25.00
2023-05-21T01:25:14.416Z,22.80
2023-05-21T01:26:14.387Z,23.10
2023-05-21T01:27:14.367Z,24.40
2023-05-21T01:28:14.329Z,23.40
2023-05-21T01:29:14.461Z,23.90
2023-05-21T01:30:14.324Z,27.40
2023-05-21T01:31:14.321Z,24.40
2023-05-21T01:32:14.268Z,23.10
2023-05-21T01:33:14.375Z,25.70
2023-05-21T01:34:14.241Z,25.80
2023-05-21T01:35:14.290Z,24.90
2023-05-21T01:36:14.226Z,22.80
2023-05-21T01:37:14.238Z,25.10
2023-05-21T01:38:14.218Z,24.60
2023-05-21T01:39:14.259Z,23.70
2023-05-21T01:40:14.166Z,25.60
2023-05-21T01:41:14.228Z,24.00
2023-05-21T01:42:14.147Z,24.80
2023-05-21T01:43:14.183Z,24.90
2023-05-21T01:44:14.129Z,24.90
2023-05-21T01:45:14.148Z,25.80
2023-05-21T01:46:14.152Z,26.10
2023-05-21T01:47:14.116Z,23.20
2023-05-21T01:48:14.078Z,24.40
2023-05-21T01:49:14.169Z,23.90
2023-05-21T01:50:14.088Z,25.20
2023-05-21T01:51:14.104Z,27.70
2023-05-21T01:52:14.013Z,25.10
2023-05-21T01:53:14.028Z,27.30
2023-05-21T01:54:13.991Z,26.10
2023-05-21T01:55:14.001Z,24.20
2023-05-21T01:56:13.960Z,27.10
2023-05-21T01:57:14.012Z,26.40
2023-05-21T01:58:13.951Z,25.30
2023-05-21T01:59:13.968Z,25.50
2023-05-21T02:00:13.951Z,27.20
2023-05-21T02:01:13.937Z,25.00
2023-05-21T02:02:14.009Z,28.20
2023-05-21T02:03:13.960Z,28.50
2023-05-21T02:04:13.882Z,25.30
2023-05-21T02:05:13.871Z,25.50
2023-05-21T02:06:13.866Z,27.20
2023-05-21T02:07:13.864Z,26.50
2023-05-21T02:08:13.806Z,26.50
2023-05-21T02:09:13.839Z,28.30
2023-05-21T02:10:13.835Z,25.50
2023-05-21T02:11:13.799Z,26.80
2023-05-21T02:12:13.788Z,25.50
2023-05-21T02:13:13.781Z,25.70
2023-05-21T02:14:13.755Z,24.20
2023-05-21T02:15:13.726Z,28.20
2023-05-21T02:16:13.779Z,25.30
2023-05-21T02:17:13.718Z,26.00
2023-05-21T02:18:13.733Z,29.10
2023-05-21T02:19:13.725Z,26.00
2023-05-21T02:20:13.773Z,25.40
2023-05-21T02:21:13.652Z,27.50
2023-05-21T02:22:13.658Z,24.10
2023-05-21T02:23:13.639Z,25.00
2023-05-21T02:24:13.631Z,25.80
2023-05-21T02:25:13.584Z,25.20
2023-05-21T02:26:13.616Z,27.60
2023-05-21T02:27:13.589Z,27.50
2023-05-21T02:28:13.588Z,28.00
2023-05-21T02:29:13.543Z,27.10
2023-05-21T02:30:13.579Z,27.00
2023-05-21T02:31:13.540Z,25.40
2023-05-21T02:32:13.594Z,25.30
2023-05-21T02:33:13.502Z,26.80
2023-05-21T02:34:13.538Z,24.70
2023-05-21T02:35:13.460Z,27.50
2023-05-21T02:36:13.556Z,28.90
2023-05-21T02:37:13.439Z,27.60
2023-05-21T02:38:13.451Z,26.00
2023-05-21T02:39:13.413Z,25.20
2023-05-21T02:40:13.417Z,26.30
2023-05-21T02:41:13.393Z,24.60
2023-05-21T02:42:13.521Z,28.30
2023-05-21T02:43:15.407Z,25.60
2023-05-21T02:44:13.379Z,27.90
2023-05-21T02:45:13.367Z,29.40
2023-05-21T02:46:13.462Z,28.70
2023-05-21T02:47:13.320Z,26.00
2023-05-21T02:48:13.426Z,29.50
2023-05-21T02:49:13.275Z,26.90
2023-05-21T02:50:13.284Z,27.90
2023-05-21T02:51:13.252Z,27.40
2023-05-21T02:52:13.318Z,26.30
2023-05-21T02:53:13.224Z,23.90
2023-05-21T02:54:13.244Z,27.90
2023-05-21T02:55:13.211Z,25.40
2023-05-21T02:56:13.199Z,27.10
2023-05-21T02:57:13.197Z,27.60
2023-05-21T02:58:13.177Z,25.70
2023-05-21T02:59:13.166Z,27.20
2023-05-21T03:00:13.152Z,27.90
2023-05-21T03:01:13.165Z,27.00
2023-05-21T03:02:13.199Z,30.60
2023-05-21T03:03:13.249Z,28.80
2023-05-21T03:04:13.126Z,27.30
2023-05-21T03:05:13.074Z,27.80
2023-05-21T03:06:13.072Z,28.20
2023-05-21T03:07:13.034Z,24.70
2023-05-21T03:08:13.073Z,26.80
2023-05-21T03:09:13.012Z,26.90
2023-05-21T03:10:13.027Z,25.70
2023-05-21T03:11:13.010Z,27.50
2023-05-21T03:12:13.013Z,28.20
2023-05-21T03:13:12.972Z,25.10
2023-05-21T03:14:12.967Z,25.50
2023-05-21T03:15:12.950Z,26.30
2023-05-21T03:16:12.966Z,26.40
2023-05-21T03:17:12.897Z,24.30
2023-05-21T03:18:13.079Z,27.40
2023-05-21T03:19:12.917Z,27.00
2023-05-21T03:20:12.901Z,29.70
2023-05-21T03:21:12.874Z,28.50
2023-05-21T03:22:12.857Z,28.90
2023-05-21T03:23:14.898Z,28.40
2023-05-21T03:24:12.838Z,28.90
2023-05-21T03:25:12.854Z,27.50
2023-05-21T03:26:12.809Z,29.30
2023-05-21T03:27:12.787Z,26.90
2023-05-21T03:28:12.814Z,28.10
2023-05-21T03:29:12.737Z,25.90
2023-05-21T03:30:12.793Z,26.30
2023-05-21T03:31:12.739Z,27.10
2023-05-21T03:32:12.810Z,26.50
2023-05-21T03:33:12.769Z,26.30
2023-05-21T03:34:12.713Z,26.40
2023-05-21T03:35:12.672Z,25.90
2023-05-21T03:36:12.687Z,23.90
2023-05-21T03:37:12.651Z,28.00
2023-05-21T03:38:12.670Z,26.50
2023-05-21T03:39:12.637Z,27.80
2023-05-21T03:40:12.632Z,28.70
2023-05-21T03:41:12.609Z,31.50
2023-05-21T03:42:12.632Z,30.10
2023-05-21T03:43:12.556Z,26.20
2023-05-21T03:44:12.592Z,26.60
2023-05-21T03:45:12.532Z,28.30
2023-05-21T03:46:12.649Z,26.00
2023-05-21T03:47:12.532Z,28.50
2023-05-21T03:48:12.548Z,26.60
2023-05-21T03:49:12.492Z,26.60
2023-05-21T03:50:12.525Z,29.20
2023-05-21T03:51:12.471Z,28.30
2023-05-21T03:52:12.528Z,27.00
2023-05-21T03:53:12.436Z,26.70
2023-05-21T03:54:12.460Z,27.80
2023-05-21T03:55:12.423Z,28.30
2023-05-21T03:56:12.413Z,29.30
2023-05-21T03:57:12.372Z,31.30
2023-05-21T03:58:12.382Z,29.00
2023-05-21T03:59:12.340Z,26.70
2023-05-21T04:00:12.386Z,27.70
2023-05-21T04:01:12.351Z,31.00
2023-05-21T04:02:12.361Z,30.60
2023-05-21T04:03:12.495Z,28.90
2023-05-21T04:04:12.417Z,26.50
2023-05-21T04:05:12.285Z,26.70
2023-05-21T04:06:12.286Z,27.30
2023-05-21T04:07:12.259Z,28.10
2023-05-21T04:08:12.258Z,28.90
2023-05-21T04:09:12.218Z,28.80
2023-05-21T04:10:12.267Z,27.90
2023-05-21T04:11:12.194Z,29.60
2023-05-21T04:12:12.204Z,27.00
2023-05-21T04:13:12.173Z,26.90
2023-05-21T04:14:12.199Z,28.90
2023-05-21T04:15:12.133Z,27.00
2023-05-21T04:16:12.170Z,29.50
2023-05-21T04:17:12.152Z,28.90
2023-05-21T04:18:12.148Z,31.10
2023-05-21T04:19:12.188Z,28.50
2023-05-21T04:20:12.133Z,28.50
2023-05-21T04:21:12.067Z,28.60
2023-05-21T04:22:12.091Z,28.70
2023-05-21T04:23:12.029Z,27.60
2023-05-21T04:24:12.040Z,32.60
2023-05-21T04:25:12.046Z,27.90
2023-05-21T04:26:12.036Z,31.00
2023-05-21T04:27:11.982Z,29.60
2023-05-21T04:28:12.008Z,29.00
2023-05-21T04:29:11.975Z,33.10
2023-05-21T04:30:11.977Z,30.10
2023-05-21T04:31:11.971Z,31.40
2023-05-21T04:32:11.952Z,31.70
2023-05-21T04:33:11.916Z,28.60
2023-05-21T04:34:11.931Z,30.30
2023-05-21T04:35:11.883Z,31.00
2023-05-21T04:36:11.888Z,27.70
2023-05-21T04:37:11.874Z,30.40
2023-05-21T04:38:11.848Z,29.70
2023-05-21T04:39:11.879Z,29.00
2023-05-21T04:40:11.823Z,29.70
2023-05-21T04:41:11.789Z,27.30
2023-05-21T04:42:11.824Z,30.30
2023-05-21T04:43:11.817Z,31.80
2023-05-21T04:44:11.777Z,29.40
2023-05-21T04:45:11.752Z,29.10
2023-05-21T04:46:11.816Z,28.50
2023-05-21T04:47:11.773Z,27.80
2023-05-21T04:48:11.753Z,29.90
2023-05-21T04:49:12.069Z,30.50
2023-05-21T04:50:11.703Z,29.50
2023-05-21T04:51:11.684Z,30.30
2023-05-21T04:52:11.700Z,29.80
2023-05-21T04:53:11.633Z,32.20
2023-05-21T04:54:11.678Z,31.30
2023-05-21T04:55:11.626Z,34.70
2023-05-21T04:56:11.641Z,32.90
2023-05-21T04:57:11.613Z,30.10
2023-05-21T04:58:11.588Z,30.10
2023-05-21T04:59:11.576Z,32.90
2023-05-21T05:00:11.560Z,34.10
2023-05-21T05:01:11.542Z,30.20
2023-05-21T05:02:11.555Z,32.70
2023-05-21T05:03:11.605Z,31.60
2023-05-21T05:04:11.545Z,29.90
2023-05-21T05:05:11.480Z,32.00
2023-05-21T05:06:11.494Z,29.00
2023-05-21T05:07:11.453Z,32.50
2023-05-21T05:08:13.863Z,32.60
2023-05-21T05:09:11.427Z,30.90
2023-05-21T05:10:11.446Z,30.00
2023-05-21T05:11:11.412Z,28.90
2023-05-21T05:12:11.427Z,29.00
2023-05-21T05:13:11.425Z,32.70
2023-05-21T05:14:11.397Z,31.70
2023-05-21T05:15:11.384Z,31.10
2023-05-21T05:16:11.393Z,30.20
2023-05-21T05:17:11.365Z,34.00
2023-05-21T05:18:11.380Z,28.60
2023-05-21T05:19:11.380Z,30.90
2023-05-21T05:20:11.326Z,31.20
2023-05-21T05:21:11.272Z,30.70
2023-05-21T05:22:13.398Z,32.50
2023-05-21T05:23:11.258Z,29.30
2023-05-21T05:24:11.273Z,30.00
2023-05-21T05:25:11.254Z,31.90
2023-05-21T05:26:11.249Z,33.30
2023-05-21T05:27:11.204Z,29.80
2023-05-21T05:28:11.206Z,32.40
2023-05-21T05:29:11.184Z,28.40
2023-05-21T05:30:11.209Z,32.60
2023-05-21T05:31:11.195Z,30.30
2023-05-21T05:32:11.149Z,31.70
2023-05-21T05:33:11.148Z,29.80
2023-05-21T05:34:11.126Z,30.20
2023-05-21T05:35:11.114Z,28.90
2023-05-21T05:36:11.148Z,30.20
2023-05-21T05:37:11.060Z,28.20
2023-05-21T05:38:11.082Z,26.90
2023-05-21T05:39:11.069Z,26.60
2023-05-21T05:40:11.061Z,27.90
2023-05-21T05:41:11.037Z,26.90
2023-05-21T05:42:11.009Z,27.60
2023-05-21T05:43:11.008Z,29.70
2023-05-21T05:44:11.112Z,28.50
2023-05-21T05:45:10.976Z,26.50
2023-05-21T05:46:10.999Z,28.20
2023-05-21T05:47:10.932Z,27.20
2023-05-21T05:48:10.980Z,26.80
2023-05-21T05:49:10.927Z,28.50
2023-05-21T05:50:10.932Z,27.80
2023-05-21T05:51:10.867Z,28.90
2023-05-21T05:52:10.888Z,26.30
2023-05-21T05:53:10.846Z,28.00
2023-05-21T05:54:10.889Z,26.10
2023-05-21T05:55:10.833Z,25.50
2023-05-21T05:56:10.832Z,26.60
2023-05-21T05:57:10.791Z,26.70
2023-05-21T05:58:10.831Z,26.30
2023-05-21T05:59:10.770Z,27.50
2023-05-21T06:00:10.797Z,28.30
2023-05-21T06:01:10.753Z,28.20
2023-05-21T06:02:10.822Z,28.00
2023-05-21T06:03:10.819Z,25.90
2023-05-21T06:04:10.795Z,26.60
2023-05-21T06:05:10.709Z,30.10
2023-05-21T06:06:10.730Z,25.00
2023-05-21T06:07:10.690Z,27.80
2023-05-21T06:08:10.705Z,25.60
2023-05-21T06:09:10.633Z,26.10
2023-05-21T06:10:10.681Z,26.90
2023-05-21T06:11:10.612Z,26.80
2023-05-21T06:12:14.593Z,25.70
2023-05-21T06:13:10.597Z,27.30
2023-05-21T06:14:10.594Z,29.40
2023-05-21T06:15:10.548Z,27.00
2023-05-21T06:16:10.629Z,28.00
2023-05-21T06:17:10.521Z,26.20
2023-05-21T06:18:10.581Z,26.00
2023-05-21T06:19:10.559Z,27.10
2023-05-21T06:20:10.515Z,26.10
2023-05-21T06:21:10.502Z,25.60
2023-05-21T06:22:10.490Z,29.30
2023-05-21T06:23:10.439Z,26.00
2023-05-21T06:24:10.486Z,24.40
2023-05-21T06:25:10.416Z,29.00
2023-05-21T06:26:10.451Z,25.50
2023-05-21T06:27:10.420Z,26.20
2023-05-21T06:28:10.377Z,24.70
2023-05-21T06:29:10.396Z,27.10
2023-05-21T06:30:10.396Z,25.00
2023-05-21T06:31:10.384Z,27.40
2023-05-21T06:32:10.356Z,27.60
2023-05-21T06:33:10.403Z,26.80
2023-05-21T06:34:10.309Z,28.80
2023-05-21T06:35:10.331Z,25.00
2023-05-21T06:36:10.280Z,26.20
2023-05-21T06:37:10.289Z,25.50
2023-05-21T06:38:10.282Z,25.40
2023-05-21T06:39:10.272Z,24.70
2023-05-21T06:40:10.226Z,27.00
2023-05-21T06:41:10.264Z,27.20
2023-05-21T06:42:10.245Z,25.20
2023-05-21T06:43:10.226Z,28.00
2023-05-21T06:44:10.192Z,27.00
2023-05-21T06:45:10.206Z,25.60
2023-05-21T06:46:10.231Z,24.40
2023-05-21T06:47:10.161Z,24.40
2023-05-21T06:48:10.220Z,26.00
2023-05-21T06:49:11.276Z,26.40
2023-05-21T06:50:10.125Z,25.30
2023-05-21T06:51:10.131Z,23.50
2023-05-21T06:52:10.106Z,26.60
2023-05-21T06:53:10.116Z,23.50
2023-05-21T06:54:10.049Z,23.40
2023-05-21T06:55:10.054Z,24.00
2023-05-21T06:56:10.083Z,25.50
2023-05-21T06:57:10.038Z,25.20
2023-05-21T06:58:10.005Z,24.20
2023-05-21T06:59:10.012Z,28.60
2023-05-21T07:00:09.994Z,26.20
2023-05-21T07:01:10.050Z,25.10
2023-05-21T07:02:09.948Z,25.90
2023-05-21T07:03:10.107Z,24.10
2023-05-21T07:04:09.915Z,25.20
2023-05-21T07:05:09.928Z,26.70
2023-05-21T07:06:09.921Z,25.00
2023-05-21T07:07:09.890Z,25.40
2023-05-21T07:08:11.905Z,24.70
2023-05-21T07:09:09.887Z,23.00
2023-05-21T07:10:09.834Z,25.40
2023-05-21T07:11:09.866Z,25.30
2023-05-21T07:12:09.838Z,25.40
2023-05-21T07:13:09.822Z,22.40
2023-05-21T07:14:09.785Z,24.30
2023-05-21T07:15:09.785Z,24.80
2023-05-21T07:16:09.954Z,23.40
2023-05-21T07:17:09.909Z,25.00
2023-05-21T07:18:09.832Z,22.50
2023-05-21T07:19:09.802Z,26.00
2023-05-21T07:20:09.706Z,23.50
2023-05-21T07:21:09.707Z,26.20
2023-05-21T07:22:09.716Z,25.00
2023-05-21T07:23:09.691Z,24.20
2023-05-21T07:24:09.671Z,26.00
2023-05-21T07:25:09.706Z,26.90
2023-05-21T07:26:09.639Z,22.30
2023-05-21T07:27:24.727Z,22.90
2023-05-21T07:28:09.653Z,24.00
2023-05-21T07:29:09.611Z,22.50
2023-05-21T07:30:09.584Z,21.20
2023-05-21T07:31:09.604Z,25.70
2023-05-21T07:32:09.540Z,21.30
2023-05-21T07:33:09.579Z,21.60
2023-05-21T07:34:09.549Z,19.70
2023-05-21T07:35:09.538Z,23.20
2023-05-21T07:36:09.501Z,20.80
2023-05-21T07:37:09.509Z,21.70
2023-05-21T07:38:09.498Z,25.60
2023-05-21T07:39:09.481Z,21.20
2023-05-21T07:40:09.462Z,19.80
2023-05-21T07:41:09.450Z,21.00
2023-05-21T07:42:09.438Z,21.10
2023-05-21T07:43:09.436Z,19.40
2023-05-21T07:44:09.435Z,20.60
2023-05-21T07:45:09.411Z,20.70
2023-05-21T07:46:09.409Z,21.10
2023-05-21T07:47:09.376Z,24.10
2023-05-21T07:48:09.432Z,21.90
2023-05-21T07:49:09.369Z,22.40
2023-05-21T07:50:09.313Z,18.10
2023-05-21T07:51:09.350Z,20.10
2023-05-21T07:52:09.297Z,19.70
2023-05-21T07:53:09.323Z,20.40
2023-05-21T07:54:09.281Z,20.70
2023-05-21T07:55:09.272Z,20.70
2023-05-21T07:56:09.245Z,18.80
2023-05-21T07:57:09.257Z,21.20
2023-05-21T07:58:09.236Z,18.90
2023-05-21T07:59:09.238Z,18.70
2023-05-21T08:00:09.205Z,20.10
2023-05-21T08:01:09.194Z,20.80
2023-05-21T08:02:09.188Z,20.20
2023-05-21T08:03:09.304Z,18.80
2023-05-21T08:04:09.287Z,19.30
2023-05-21T08:05:09.219Z,17.30
2023-05-21T08:06:09.115Z,19.00
2023-05-21T08:07:09.119Z,20.60
2023-05-21T08:08:09.111Z,19.40
2023-05-21T08:09:09.137Z,19.20
2023-05-21T08:10:09.146Z,20.30
2023-05-21T08:11:09.077Z,22.10
2023-05-21T08:12:09.020Z,20.10
2023-05-21T08:13:09.080Z,17.80
2023-05-21T08:14:09.013Z,17.70
2023-05-21T08:15:09.017Z,17.90
2023-05-21T08:16:09.063Z,16.80
2023-05-21T08:17:08.997Z,18.80
2023-05-21T08:18:08.986Z,17.30
2023-05-21T08:19:09.051Z,17.80
2023-05-21T08:20:08.933Z,18.20
2023-05-21T08:21:08.950Z,19.50
2023-05-21T08:22:08.875Z,19.70
2023-05-21T08:23:08.907Z,18.90
2023-05-21T08:24:08.872Z,17.30
2023-05-21T08:25:08.907Z,17.40
2023-05-21T08:26:08.848Z,16.10
2023-05-21T08:27:08.831Z,16.30
2023-05-21T08:28:08.825Z,17.00
2023-05-21T08:29:08.851Z,16.70
2023-05-21T08:30:08.838Z,15.80
2023-05-21T08:31:08.807Z,16.50
2023-05-21T08:32:08.924Z,17.90
2023-05-21T08:33:08.886Z,18.50
2023-05-21T08:34:08.750Z,17.20
2023-05-21T08:35:08.757Z,16.80
2023-05-21T08:36:08.719Z,16.10
2023-05-21T08:37:08.741Z,15.40
2023-05-21T08:38:08.699Z,16.10
2023-05-21T08:39:08.679Z,15.90
2023-05-21T08:40:08.674Z,14.00
2023-05-21T08:41:08.658Z,14.20
2023-05-21T08:42:08.725Z,15.70
2023-05-21T08:43:08.661Z,16.20
2023-05-21T08:44:08.657Z,17.00
2023-05-21T08:45:08.643Z,15.40
2023-05-21T08:46:08.653Z,14.50
2023-05-21T08:47:08.590Z,17.70
2023-05-21T08:48:08.556Z,13.80
2023-05-21T08:49:08.571Z,15.00
2023-05-21T08:50:08.534Z,12.70
2023-05-21T08:51:08.533Z,15.80
2023-05-21T08:52:08.530Z,13.30
2023-05-21T08:53:15.889Z,13.80
2023-05-21T08:54:08.504Z,15.20
2023-05-21T08:55:08.478Z,12.60
2023-05-21T08:56:08.450Z,16.70
2023-05-21T08:57:08.463Z,14.30
2023-05-21T08:58:08.423Z,12.80
2023-05-21T08:59:08.493Z,15.90
2023-05-21T09:00:08.391Z,13.50
2023-05-21T09:01:08.445Z,14.20
2023-05-21T09:02:08.376Z,13.80
2023-05-21T09:03:08.458Z,12.90
2023-05-21T09:04:20.128Z,12.80
2023-05-21T09:05:08.361Z,16.10
2023-05-21T09:06:08.312Z,13.60
2023-05-21T09:07:08.331Z,13.20
2023-05-21T09:08:08.318Z,12.90
2023-05-21T09:09:08.307Z,15.20
2023-05-21T09:10:08.281Z,13.30
2023-05-21T09:11:08.285Z,12.70
2023-05-21T09:12:08.224Z,15.10
2023-05-21T09:13:08.273Z,12.20
2023-05-21T09:14:08.241Z,12.10
2023-05-21T09:15:08.222Z,12.10
2023-05-21T09:16:08.205Z,19.60
2023-05-21T09:17:08.318Z,13.60
2023-05-21T09:18:08.189Z,11.60
2023-05-21T09:19:08.201Z,13.70
2023-05-21T09:20:08.169Z,14.20
2023-05-21T09:21:08.140Z,13.20
2023-05-21T09:22:08.147Z,14.40
2023-05-21T09:23:08.123Z,14.20
2023-05-21T09:24:08.081Z,14.90
2023-05-21T09:25:08.132Z,13.90
2023-05-21T09:26:08.057Z,16.20
2023-05-21T09:27:08.081Z,12.70
2023-05-21T09:28:08.033Z,13.70
2023-05-21T09:29:08.052Z,13.40
2023-05-21T09:30:08.073Z,12.50
2023-05-21T09:31:08.028Z,14.40
2023-05-21T09:32:08.003Z,12.60
2023-05-21T09:33:08.053Z,15.30
2023-05-21T09:34:07.970Z,12.70
2023-05-21T09:35:08.012Z,14.40
2023-05-21T09:36:07.968Z,13.10
2023-05-21T09:37:16.504Z,14.60
2023-05-21T09:38:07.891Z,13.40
2023-05-21T09:39:07.920Z,14.30
2023-05-21T09:40:07.863Z,13.30
2023-05-21T09:41:07.896Z,12.60
2023-05-21T09:42:07.874Z,19.50
2023-05-21T09:43:07.874Z,14.90
2023-05-21T09:44:07.850Z,13.80
2023-05-21T09:45:07.849Z,13.70
2023-05-21T09:46:07.830Z,13.00
2023-05-21T09:47:07.837Z,14.60
2023-05-21T09:48:07.792Z,13.90
2023-05-21T09:49:07.788Z,12.00
2023-05-21T09:50:07.787Z,14.70
2023-05-21T09:51:07.748Z,13.60
2023-05-21T09:52:07.706Z,12.40
2023-05-21T09:53:07.771Z,11.70
2023-05-21T09:54:07.695Z,15.20
2023-05-21T09:55:07.732Z,13.60
2023-05-21T09:56:07.666Z,18.30
2023-05-21T09:57:07.692Z,12.40
2023-05-21T09:58:07.643Z,13.60
2023-05-21T09:59:07.661Z,12.70
2023-05-21T10:00:07.624Z,10.70
2023-05-21T10:01:07.637Z,12.50
2023-05-21T10:02:07.730Z,12.20
2023-05-21T10:03:07.678Z,11.20
2023-05-21T10:04:07.611Z,14.60
2023-05-21T10:05:07.609Z,11.50
2023-05-21T10:06:07.558Z,13.30
2023-05-21T10:07:07.565Z,12.50
2023-05-21T10:08:07.508Z,14.40
2023-05-21T10:09:07.538Z,12.40
2023-05-21T10:10:07.487Z,12.70
2023-05-21T10:11:07.541Z,13.40
2023-05-21T10:12:07.465Z,11.00
2023-05-21T10:13:07.496Z,12.40
2023-05-21T10:14:07.482Z,12.70
2023-05-21T10:15:07.447Z,13.40
2023-05-21T10:16:07.451Z,12.50
2023-05-21T10:17:07.446Z,15.30
2023-05-21T10:18:07.462Z,12.00
2023-05-21T10:19:07.420Z,13.70
2023-05-21T10:20:07.377Z,13.80
2023-05-21T10:21:07.375Z,11.60
2023-05-21T10:22:07.357Z,11.60
2023-05-21T10:23:07.350Z,14.70
2023-05-21T10:24:07.322Z,12.50
2023-05-21T10:25:07.311Z,13.00
2023-05-21T10:26:07.312Z,13.40
2023-05-21T10:27:07.273Z,13.70
2023-05-21T10:28:07.340Z,14.50
2023-05-21T10:29:07.243Z,14.10
2023-05-21T10:30:07.273Z,12.80
2023-05-21T10:31:07.254Z,12.00
2023-05-21T10:32:07.269Z,14.00
2023-05-21T10:33:07.231Z,15.90
2023-05-21T10:34:07.220Z,12.80
2023-05-21T10:35:07.168Z,12.70
2023-05-21T10:36:07.190Z,14.10
2023-05-21T10:37:07.136Z,11.30
2023-05-21T10:38:07.163Z,12.80
2023-05-21T10:39:07.140Z,11.90
2023-05-21T10:40:07.151Z,11.90
2023-05-21T10:41:07.186Z,11.50
2023-05-21T10:42:07.086Z,13.70
2023-05-21T10:43:07.095Z,13.30
2023-05-21T10:44:07.074Z,13.80
2023-05-21T10:45:07.076Z,14.00
2023-05-21T10:46:07.078Z,12.80
2023-05-21T10:47:07.050Z,14.00
2023-05-21T10:48:07.071Z,14.20
2023-05-21T10:49:07.016Z,11.40
2023-05-21T10:50:06.963Z,13.00
2023-05-21T10:51:07.024Z,11.70
2023-05-21T10:52:06.944Z,12.10
2023-05-21T10:53:07.694Z,12.10
2023-05-21T10:54:06.904Z,12.90
2023-05-21T10:55:06.951Z,13.00
2023-05-21T10:56:06.904Z,13.50
2023-05-21T10:57:06.913Z,16.90
2023-05-21T10:58:06.880Z,12.90
2023-05-21T10:59:06.886Z,12.80
2023-05-21T11:00:06.849Z,13.20
2023-05-21T11:01:06.876Z,13.20
2023-05-21T11:02:06.872Z,14.10
2023-05-21T11:03:06.904Z,12.10
2023-05-21T11:04:06.786Z,13.90
2023-05-21T11:05:06.793Z,12.00
2023-05-21T11:06:06.818Z,12.40
2023-05-21T11:07:06.785Z,14.60
2023-05-21T11:08:06.856Z,11.80
2023-05-21T11:09:06.760Z,13.50
2023-05-21T11:10:06.694Z,13.80
2023-05-21T11:11:06.748Z,12.90
2023-05-21T11:12:06.698Z,11.80
2023-05-21T11:13:06.725Z,14.70
2023-05-21T11:14:06.662Z,14.00
2023-05-21T11:15:06.669Z,12.90
2023-05-21T11:16:06.657Z,14.80
2023-05-21T11:17:06.818Z,11.80
2023-05-21T11:18:06.625Z,11.70
2023-05-21T11:19:06.644Z,13.10
2023-05-21T11:20:06.599Z,12.00
2023-05-21T11:21:06.596Z,13.40
2023-05-21T11:22:06.567Z,13.10
2023-05-21T11:23:06.581Z,12.70
2023-05-21T11:24:06.603Z,12.30
2023-05-21T11:25:06.556Z,11.40
2023-05-21T11:26:06.493Z,12.50
2023-05-21T11:27:06.502Z,13.50
2023-05-21T11:28:06.498Z,12.20
2023-05-21T11:29:06.511Z,11.20
2023-05-21T11:30:06.442Z,13.40
2023-05-21T11:31:06.483Z,13.00
2023-05-21T11:32:06.415Z,11.00
2023-05-21T11:33:06.536Z,13.20
2023-05-21T11:34:06.393Z,12.60
2023-05-21T11:35:06.400Z,11.90
2023-05-21T11:36:06.366Z,11.80
2023-05-21T11:37:06.414Z,13.00
2023-05-21T11:38:06.351Z,12.40
2023-05-21T11:39:06.342Z,13.10
2023-05-21T11:40:06.347Z,13.20
2023-05-21T11:41:06.350Z,10.80
2023-05-21T11:42:06.302Z,12.00
2023-05-21T11:43:06.334Z,13.20
2023-05-21T11:44:06.247Z,12.50
2023-05-21T11:45:06.268Z,13.80
2023-05-21T11:46:06.307Z,11.90
2023-05-21T11:47:06.258Z,11.00
2023-05-21T11:48:06.253Z,12.70
2023-05-21T11:49:06.222Z,14.80
2023-05-21T11:50:06.189Z,12.60
2023-05-21T11:51:06.232Z,13.70
2023-05-21T11:52:06.176Z,17.20
2023-05-21T11:53:06.170Z,10.40
2023-05-21T11:54:06.128Z,11.90
2023-05-21T11:55:06.150Z,11.70
2023-05-21T11:56:06.100Z,11.20
2023-05-21T11:57:06.146Z,12.00
2023-05-21T11:58:06.122Z,10.90
2023-05-21T11:59:06.114Z,10.50
2023-05-21T12:00:06.074Z,15.70
2023-05-21T12:01:06.070Z,12.30
2023-05-21T12:02:06.041Z,11.30
2023-05-21T12:03:06.139Z,14.50
2023-05-21T12:04:06.121Z,13.20
2023-05-21T12:05:06.004Z,11.20
2023-05-21T12:06:06.035Z,13.60
2023-05-21T12:07:06.019Z,11.70
2023-05-21T12:08:05.961Z,12.20
2023-05-21T12:09:05.973Z,11.60
2023-05-21T12:10:05.912Z,12.00
2023-05-21T12:11:05.950Z,10.50
2023-05-21T12:12:05.933Z,13.30
2023-05-21T12:13:05.916Z,14.70
2023-05-21T12:14:05.884Z,14.40
2023-05-21T12:15:05.890Z,12.20
2023-05-21T12:16:07.046Z,10.60
2023-05-21T12:17:05.884Z,12.50
2023-05-21T12:18:05.874Z,10.40
2023-05-21T12:19:05.842Z,11.40
2023-05-21T12:20:05.844Z,9.30
2023-05-21T12:21:05.801Z,10.90
2023-05-21T12:22:05.818Z,10.50
2023-05-21T12:23:05.795Z,9.80
2023-05-21T12:24:05.750Z,11.40
2023-05-21T12:25:05.766Z,10.90
2023-05-21T12:26:05.719Z,12.00
2023-05-21T12:27:05.743Z,11.90
2023-05-21T12:28:05.719Z,12.60
2023-05-21T12:29:05.699Z,9.30
2023-05-21T12:30:05.671Z,10.20
2023-05-21T12:31:05.690Z,9.90
2023-05-21T12:32:05.746Z,9.70
2023-05-21T12:33:05.700Z,8.70
2023-05-21T12:34:05.618Z,10.60
2023-05-21T12:35:05.694Z,9.70
2023-05-21T12:36:05.610Z,9.10
2023-05-21T12:37:05.602Z,12.00
2023-05-21T12:38:05.571Z,12.00
2023-05-21T12:39:05.574Z,9.70
2023-05-21T12:40:05.616Z,10.70
2023-05-21T12:41:05.548Z,9.80
2023-05-21T12:42:05.508Z,10.00
2023-05-21T12:43:05.534Z,9.10
2023-05-21T12:44:05.482Z,9.10
2023-05-21T12:45:05.505Z,8.70
2023-05-21T12:46:05.505Z,8.40
2023-05-21T12:47:05.462Z,8.40
2023-05-21T12:48:05.487Z,10.10
2023-05-21T12:49:05.517Z,11.00
2023-05-21T12:50:05.424Z,9.20
2023-05-21T12:51:05.422Z,8.90
2023-05-21T12:52:05.373Z,8.20
2023-05-21T12:53:05.527Z,8.50